sensor_id;sensor_type;location;lat;lon;timestamp;P1;durP1;ratioP1;P2;durP2;ratioP2
21661;SDS011;10992;48.170;8.596;2023-03-01T00:01:07;28.98;;;18.35;;
21661;SDS011;10992;48.170;8.596;2023-03-01T00:03:40;30.10;;;18.70;;
21661;SDS011;10992;48.170;8.596;2023-03-01T00:06:08;32.42;;;18.88;;
21661;SDS011;10992;48.170;8.596;2023-03-01T00:08:35;30.58;;;18.40;;
21661;SDS011;10992;48.170;8.596;2023-03-01T00:11:07;29.38;;;18.30;;
21661;SDS011;10992;48.170;8.596;2023-03-01T00:13:38;29.38;;;18.63;;
21661;SDS011;10992;48.170;8.596;2023-03-01T00:16:06;34.47;;;19.13;;
21661;SDS011;10992;48.170;8.596;2023-03-01T00:18:35;27.75;;;19.02;;
21661;SDS011;10992;48.170;8.596;2023-03-01T00:21:02;37.58;;;19.33;;
21661;SDS011;10992;48.170;8.596;2023-03-01T00:23:29;30.92;;;19.42;;
21661;SDS011;10992;48.170;8.596;2023-03-01T00:25:56;30.98;;;19.70;;
21661;SDS011;10992;48.170;8.596;2023-03-01T00:28:23;33.75;;;20.02;;
21661;SDS011;10992;48.170;8.596;2023-03-01T00:30:50;33.60;;;19.38;;
21661;SDS011;10992;48.170;8.596;2023-03-01T00:33:17;29.88;;;19.73;;
21661;SDS011;10992;48.170;8.596;2023-03-01T00:35:45;32.15;;;20.30;;
21661;SDS011;10992;48.170;8.596;2023-03-01T00:38:12;34.92;;;20.05;;
21661;SDS011;10992;48.170;8.596;2023-03-01T00:40:39;32.40;;;20.70;;
21661;SDS011;10992;48.170;8.596;2023-03-01T00:43:06;31.27;;;20.50;;
21661;SDS011;10992;48.170;8.596;2023-03-01T00:45:32;30.85;;;19.50;;
21661;SDS011;10992;48.170;8.596;2023-03-01T00:47:59;32.95;;;19.90;;
21661;SDS011;10992;48.170;8.596;2023-03-01T00:50:26;32.35;;;19.63;;
21661;SDS011;10992;48.170;8.596;2023-03-01T00:52:56;31.25;;;19.67;;
21661;SDS011;10992;48.170;8.596;2023-03-01T00:55:24;33.03;;;19.77;;
21661;SDS011;10992;48.170;8.596;2023-03-01T00:57:51;30.35;;;18.92;;
21661;SDS011;10992;48.170;8.596;2023-03-01T01:00:19;32.70;;;19.65;;
21661;SDS011;10992;48.170;8.596;2023-03-01T01:02:47;29.63;;;19.73;;
21661;SDS011;10992;48.170;8.596;2023-03-01T01:05:15;30.02;;;19.13;;
21661;SDS011;10992;48.170;8.596;2023-03-01T01:07:47;35.28;;;21.77;;
21661;SDS011;10992;48.170;8.596;2023-03-01T01:10:14;32.80;;;20.73;;
21661;SDS011;10992;48.170;8.596;2023-03-01T01:12:44;33.20;;;19.77;;
21661;SDS011;10992;48.170;8.596;2023-03-01T01:15:12;33.58;;;21.58;;
21661;SDS011;10992;48.170;8.596;2023-03-01T01:17:40;33.42;;;21.15;;
21661;SDS011;10992;48.170;8.596;2023-03-01T01:20:07;30.33;;;19.75;;
21661;SDS011;10992;48.170;8.596;2023-03-01T01:22:35;31.88;;;20.52;;
21661;SDS011;10992;48.170;8.596;2023-03-01T01:25:02;33.83;;;20.00;;
21661;SDS011;10992;48.170;8.596;2023-03-01T01:27:30;32.88;;;21.23;;
21661;SDS011;10992;48.170;8.596;2023-03-01T01:29:56;32.20;;;20.05;;
21661;SDS011;10992;48.170;8.596;2023-03-01T01:32:23;32.47;;;19.38;;
21661;SDS011;10992;48.170;8.596;2023-03-01T01:34:52;36.83;;;21.23;;
21661;SDS011;10992;48.170;8.596;2023-03-01T01:37:19;29.20;;;20.20;;
21661;SDS011;10992;48.170;8.596;2023-03-01T01:39:47;37.70;;;20.60;;
21661;SDS011;10992;48.170;8.596;2023-03-01T01:42:15;30.55;;;20.15;;
21661;SDS011;10992;48.170;8.596;2023-03-01T01:44:46;35.47;;;19.98;;
21661;SDS011;10992;48.170;8.596;2023-03-01T01:47:15;34.75;;;20.73;;
21661;SDS011;10992;48.170;8.596;2023-03-01T01:49:46;30.70;;;19.38;;
21661;SDS011;10992;48.170;8.596;2023-03-01T01:52:21;32.83;;;18.55;;
21661;SDS011;10992;48.170;8.596;2023-03-01T01:57:34;31.10;;;20.25;;
21661;SDS011;10992;48.170;8.596;2023-03-01T02:00:08;32.15;;;19.70;;
21661;SDS011;10992;48.170;8.596;2023-03-01T02:02:39;31.02;;;19.45;;
21661;SDS011;10992;48.170;8.596;2023-03-01T02:05:11;32.40;;;20.02;;
21661;SDS011;10992;48.170;8.596;2023-03-01T02:08:02;29.42;;;19.45;;
21661;SDS011;10992;48.170;8.596;2023-03-01T02:10:29;28.55;;;18.35;;
21661;SDS011;10992;48.170;8.596;2023-03-01T02:12:59;31.27;;;19.55;;
21661;SDS011;10992;48.170;8.596;2023-03-01T02:15:30;32.65;;;19.95;;
21661;SDS011;10992;48.170;8.596;2023-03-01T02:17:59;33.25;;;18.70;;
21661;SDS011;10992;48.170;8.596;2023-03-01T02:20:33;30.60;;;18.35;;
21661;SDS011;10992;48.170;8.596;2023-03-01T02:23:07;28.88;;;17.77;;
21661;SDS011;10992;48.170;8.596;2023-03-01T02:25:50;29.25;;;18.27;;
21661;SDS011;10992;48.170;8.596;2023-03-01T02:30:57;31.25;;;18.55;;
21661;SDS011;10992;48.170;8.596;2023-03-01T02:33:43;29.65;;;18.25;;
21661;SDS011;10992;48.170;8.596;2023-03-01T02:36:19;29.70;;;18.25;;
21661;SDS011;10992;48.170;8.596;2023-03-01T02:38:50;25.70;;;17.58;;
21661;SDS011;10992;48.170;8.596;2023-03-01T02:41:20;28.13;;;18.33;;
21661;SDS011;10992;48.170;8.596;2023-03-01T02:43:48;26.65;;;17.58;;
21661;SDS011;10992;48.170;8.596;2023-03-01T02:46:19;28.08;;;17.65;;
21661;SDS011;10992;48.170;8.596;2023-03-01T02:48:58;26.92;;;17.63;;
21661;SDS011;10992;48.170;8.596;2023-03-01T02:56:51;28.48;;;18.50;;
21661;SDS011;10992;48.170;8.596;2023-03-01T02:59:21;27.30;;;18.15;;
21661;SDS011;10992;48.170;8.596;2023-03-01T03:01:51;26.27;;;17.15;;
21661;SDS011;10992;48.170;8.596;2023-03-01T03:04:18;26.10;;;17.77;;
21661;SDS011;10992;48.170;8.596;2023-03-01T03:06:49;29.63;;;18.98;;
21661;SDS011;10992;48.170;8.596;2023-03-01T03:09:17;27.98;;;18.33;;
21661;SDS011;10992;48.170;8.596;2023-03-01T03:11:45;26.38;;;17.52;;
21661;SDS011;10992;48.170;8.596;2023-03-01T03:14:14;29.30;;;19.38;;
21661;SDS011;10992;48.170;8.596;2023-03-01T03:16:46;28.63;;;18.75;;
21661;SDS011;10992;48.170;8.596;2023-03-01T03:19:15;26.58;;;18.55;;
21661;SDS011;10992;48.170;8.596;2023-03-01T03:21:43;28.20;;;17.95;;
21661;SDS011;10992;48.170;8.596;2023-03-01T03:24:10;30.02;;;19.50;;
21661;SDS011;10992;48.170;8.596;2023-03-01T03:26:37;31.95;;;19.45;;
21661;SDS011;10992;48.170;8.596;2023-03-01T03:29:04;29.52;;;19.77;;
21661;SDS011;10992;48.170;8.596;2023-03-01T03:31:31;28.08;;;19.25;;
21661;SDS011;10992;48.170;8.596;2023-03-01T03:33:58;29.10;;;19.05;;
21661;SDS011;10992;48.170;8.596;2023-03-01T03:36:25;28.35;;;18.15;;
21661;SDS011;10992;48.170;8.596;2023-03-01T03:38:52;28.70;;;18.40;;
21661;SDS011;10992;48.170;8.596;2023-03-01T03:41:19;29.52;;;19.25;;
21661;SDS011;10992;48.170;8.596;2023-03-01T03:43:46;29.55;;;18.85;;
21661;SDS011;10992;48.170;8.596;2023-03-01T03:46:15;32.55;;;19.60;;
21661;SDS011;10992;48.170;8.596;2023-03-01T03:48:44;30.50;;;18.73;;
21661;SDS011;10992;48.170;8.596;2023-03-01T03:51:15;29.83;;;18.15;;
21661;SDS011;10992;48.170;8.596;2023-03-01T03:53:44;29.35;;;18.77;;
21661;SDS011;10992;48.170;8.596;2023-03-01T03:56:11;31.08;;;19.23;;
21661;SDS011;10992;48.170;8.596;2023-03-01T03:58:38;28.90;;;18.73;;
21661;SDS011;10992;48.170;8.596;2023-03-01T04:01:06;31.92;;;19.23;;
21661;SDS011;10992;48.170;8.596;2023-03-01T04:03:33;28.17;;;18.50;;
21661;SDS011;10992;48.170;8.596;2023-03-01T04:06:01;26.45;;;18.38;;
21661;SDS011;10992;48.170;8.596;2023-03-01T04:08:30;28.65;;;18.38;;
21661;SDS011;10992;48.170;8.596;2023-03-01T04:11:01;33.10;;;19.52;;
21661;SDS011;10992;48.170;8.596;2023-03-01T04:13:50;30.38;;;18.35;;
21661;SDS011;10992;48.170;8.596;2023-03-01T04:16:19;31.85;;;19.77;;
21661;SDS011;10992;48.170;8.596;2023-03-01T04:18:46;30.63;;;19.23;;
21661;SDS011;10992;48.170;8.596;2023-03-01T04:21:13;29.50;;;19.63;;
21661;SDS011;10992;48.170;8.596;2023-03-01T04:23:40;27.40;;;19.00;;
21661;SDS011;10992;48.170;8.596;2023-03-01T04:26:08;32.10;;;19.02;;
21661;SDS011;10992;48.170;8.596;2023-03-01T04:28:36;28.63;;;19.00;;
21661;SDS011;10992;48.170;8.596;2023-03-01T04:31:07;32.50;;;19.02;;
21661;SDS011;10992;48.170;8.596;2023-03-01T04:33:46;29.42;;;18.95;;
21661;SDS011;10992;48.170;8.596;2023-03-01T04:36:15;32.92;;;19.75;;
21661;SDS011;10992;48.170;8.596;2023-03-01T04:38:44;31.70;;;19.17;;
21661;SDS011;10992;48.170;8.596;2023-03-01T04:41:15;33.15;;;20.73;;
21661;SDS011;10992;48.170;8.596;2023-03-01T04:43:44;30.83;;;20.40;;
21661;SDS011;10992;48.170;8.596;2023-03-01T04:46:12;27.83;;;19.20;;
21661;SDS011;10992;48.170;8.596;2023-03-01T04:48:41;29.52;;;19.60;;
21661;SDS011;10992;48.170;8.596;2023-03-01T04:51:09;29.27;;;18.88;;
21661;SDS011;10992;48.170;8.596;2023-03-01T04:53:40;30.42;;;20.55;;
21661;SDS011;10992;48.170;8.596;2023-03-01T04:56:07;29.30;;;17.85;;
21661;SDS011;10992;48.170;8.596;2023-03-01T04:58:34;31.60;;;21.15;;
21661;SDS011;10992;48.170;8.596;2023-03-01T05:01:01;30.67;;;18.92;;
21661;SDS011;10992;48.170;8.596;2023-03-01T05:03:45;31.13;;;20.63;;
21661;SDS011;10992;48.170;8.596;2023-03-01T05:06:15;31.67;;;20.73;;
21661;SDS011;10992;48.170;8.596;2023-03-01T05:08:43;31.98;;;18.75;;
21661;SDS011;10992;48.170;8.596;2023-03-01T05:11:11;28.80;;;19.63;;
21661;SDS011;10992;48.170;8.596;2023-03-01T05:13:38;29.58;;;19.05;;
21661;SDS011;10992;48.170;8.596;2023-03-01T05:16:06;29.48;;;19.48;;
21661;SDS011;10992;48.170;8.596;2023-03-01T05:18:37;34.28;;;20.75;;
21661;SDS011;10992;48.170;8.596;2023-03-01T05:21:07;30.52;;;19.95;;
21661;SDS011;10992;48.170;8.596;2023-03-01T05:23:36;32.83;;;20.60;;
21661;SDS011;10992;48.170;8.596;2023-03-01T05:26:04;32.22;;;19.80;;
21661;SDS011;10992;48.170;8.596;2023-03-01T05:28:36;32.05;;;20.90;;
21661;SDS011;10992;48.170;8.596;2023-03-01T05:31:04;29.13;;;19.67;;
21661;SDS011;10992;48.170;8.596;2023-03-01T05:33:39;32.53;;;21.13;;
21661;SDS011;10992;48.170;8.596;2023-03-01T05:36:07;32.83;;;20.38;;
21661;SDS011;10992;48.170;8.596;2023-03-01T05:38:36;33.88;;;20.85;;
21661;SDS011;10992;48.170;8.596;2023-03-01T05:41:03;30.67;;;20.50;;
21661;SDS011;10992;48.170;8.596;2023-03-01T05:43:30;33.70;;;20.13;;
21661;SDS011;10992;48.170;8.596;2023-03-01T05:46:03;32.13;;;21.48;;
21661;SDS011;10992;48.170;8.596;2023-03-01T05:48:30;36.25;;;20.83;;
21661;SDS011;10992;48.170;8.596;2023-03-01T05:50:59;32.58;;;21.40;;
21661;SDS011;10992;48.170;8.596;2023-03-01T05:53:26;33.58;;;20.45;;
21661;SDS011;10992;48.170;8.596;2023-03-01T05:55:56;35.40;;;21.17;;
21661;SDS011;10992;48.170;8.596;2023-03-01T05:58:24;31.40;;;21.00;;
21661;SDS011;10992;48.170;8.596;2023-03-01T06:00:50;35.38;;;20.98;;
21661;SDS011;10992;48.170;8.596;2023-03-01T06:03:20;33.90;;;20.98;;
21661;SDS011;10992;48.170;8.596;2023-03-01T06:05:47;30.58;;;20.52;;
21661;SDS011;10992;48.170;8.596;2023-03-01T06:08:14;33.67;;;21.27;;
21661;SDS011;10992;48.170;8.596;2023-03-01T06:10:41;33.78;;;21.25;;
21661;SDS011;10992;48.170;8.596;2023-03-01T06:13:08;36.38;;;21.23;;
21661;SDS011;10992;48.170;8.596;2023-03-01T06:15:35;36.92;;;21.65;;
21661;SDS011;10992;48.170;8.596;2023-03-01T06:18:02;33.65;;;21.38;;
21661;SDS011;10992;48.170;8.596;2023-03-01T06:20:29;35.20;;;21.38;;
21661;SDS011;10992;48.170;8.596;2023-03-01T06:22:56;33.13;;;21.13;;
21661;SDS011;10992;48.170;8.596;2023-03-01T06:25:24;32.78;;;21.33;;
21661;SDS011;10992;48.170;8.596;2023-03-01T06:27:52;35.53;;;21.75;;
21661;SDS011;10992;48.170;8.596;2023-03-01T06:30:20;37.58;;;22.63;;
21661;SDS011;10992;48.170;8.596;2023-03-01T06:32:49;35.75;;;21.85;;
21661;SDS011;10992;48.170;8.596;2023-03-01T06:35:17;39.85;;;22.05;;
21661;SDS011;10992;48.170;8.596;2023-03-01T06:37:45;40.53;;;24.17;;
21661;SDS011;10992;48.170;8.596;2023-03-01T06:40:13;36.95;;;23.17;;
21661;SDS011;10992;48.170;8.596;2023-03-01T06:42:43;35.05;;;21.10;;
21661;SDS011;10992;48.170;8.596;2023-03-01T06:45:15;34.83;;;22.42;;
21661;SDS011;10992;48.170;8.596;2023-03-01T06:47:43;33.83;;;22.20;;
21661;SDS011;10992;48.170;8.596;2023-03-01T06:50:10;37.70;;;23.83;;
21661;SDS011;10992;48.170;8.596;2023-03-01T06:52:38;36.30;;;21.55;;
21661;SDS011;10992;48.170;8.596;2023-03-01T06:55:05;34.67;;;22.27;;
21661;SDS011;10992;48.170;8.596;2023-03-01T06:57:32;34.17;;;22.08;;
21661;SDS011;10992;48.170;8.596;2023-03-01T06:59:59;36.13;;;23.08;;
21661;SDS011;10992;48.170;8.596;2023-03-01T07:02:26;36.45;;;22.33;;
21661;SDS011;10992;48.170;8.596;2023-03-01T07:04:53;39.55;;;23.33;;
21661;SDS011;10992;48.170;8.596;2023-03-01T07:07:20;36.72;;;23.15;;
21661;SDS011;10992;48.170;8.596;2023-03-01T07:09:48;36.50;;;22.33;;
21661;SDS011;10992;48.170;8.596;2023-03-01T07:12:16;38.38;;;23.52;;
21661;SDS011;10992;48.170;8.596;2023-03-01T07:14:43;37.55;;;22.98;;
21661;SDS011;10992;48.170;8.596;2023-03-01T07:17:10;35.67;;;23.17;;
21661;SDS011;10992;48.170;8.596;2023-03-01T07:19:37;34.50;;;22.83;;
21661;SDS011;10992;48.170;8.596;2023-03-01T07:22:04;35.42;;;22.55;;
21661;SDS011;10992;48.170;8.596;2023-03-01T07:24:34;37.53;;;21.73;;
21661;SDS011;10992;48.170;8.596;2023-03-01T07:27:00;34.80;;;22.88;;
21661;SDS011;10992;48.170;8.596;2023-03-01T07:29:27;32.92;;;20.70;;
21661;SDS011;10992;48.170;8.596;2023-03-01T07:31:55;37.13;;;23.98;;
21661;SDS011;10992;48.170;8.596;2023-03-01T07:34:22;35.00;;;22.85;;
21661;SDS011;10992;48.170;8.596;2023-03-01T07:36:52;36.55;;;22.15;;
21661;SDS011;10992;48.170;8.596;2023-03-01T07:39:19;33.75;;;22.05;;
21661;SDS011;10992;48.170;8.596;2023-03-01T07:41:46;33.03;;;21.83;;
21661;SDS011;10992;48.170;8.596;2023-03-01T07:44:13;33.95;;;21.73;;
21661;SDS011;10992;48.170;8.596;2023-03-01T07:46:40;39.58;;;22.55;;
21661;SDS011;10992;48.170;8.596;2023-03-01T07:49:07;38.58;;;22.60;;
21661;SDS011;10992;48.170;8.596;2023-03-01T07:51:34;36.70;;;22.27;;
21661;SDS011;10992;48.170;8.596;2023-03-01T07:54:01;36.95;;;21.73;;
21661;SDS011;10992;48.170;8.596;2023-03-01T07:56:28;38.17;;;22.10;;
21661;SDS011;10992;48.170;8.596;2023-03-01T07:58:56;35.88;;;23.58;;
21661;SDS011;10992;48.170;8.596;2023-03-01T08:01:27;36.55;;;24.52;;
21661;SDS011;10992;48.170;8.596;2023-03-01T08:03:54;38.30;;;27.13;;
21661;SDS011;10992;48.170;8.596;2023-03-01T08:06:21;36.20;;;24.70;;
21661;SDS011;10992;48.170;8.596;2023-03-01T08:08:50;37.72;;;22.63;;
21661;SDS011;10992;48.170;8.596;2023-03-01T08:11:17;35.03;;;22.08;;
21661;SDS011;10992;48.170;8.596;2023-03-01T08:13:46;31.00;;;20.95;;
21661;SDS011;10992;48.170;8.596;2023-03-01T08:16:17;31.02;;;20.48;;
21661;SDS011;10992;48.170;8.596;2023-03-01T08:18:44;33.15;;;21.05;;
21661;SDS011;10992;48.170;8.596;2023-03-01T08:21:12;35.08;;;21.23;;
21661;SDS011;10992;48.170;8.596;2023-03-01T08:23:41;33.88;;;20.95;;
21661;SDS011;10992;48.170;8.596;2023-03-01T08:26:10;34.78;;;20.95;;
21661;SDS011;10992;48.170;8.596;2023-03-01T08:28:43;29.83;;;19.58;;
21661;SDS011;10992;48.170;8.596;2023-03-01T08:33:40;38.55;;;22.48;;
21661;SDS011;10992;48.170;8.596;2023-03-01T08:36:07;30.98;;;20.02;;
21661;SDS011;10992;48.170;8.596;2023-03-01T08:38:34;40.45;;;22.08;;
21661;SDS011;10992;48.170;8.596;2023-03-01T08:41:02;34.50;;;21.55;;
21661;SDS011;10992;48.170;8.596;2023-03-01T08:43:33;32.97;;;20.67;;
21661;SDS011;10992;48.170;8.596;2023-03-01T08:45:59;32.95;;;21.33;;
21661;SDS011;10992;48.170;8.596;2023-03-01T08:48:27;34.88;;;21.83;;
21661;SDS011;10992;48.170;8.596;2023-03-01T08:50:55;30.95;;;20.48;;
21661;SDS011;10992;48.170;8.596;2023-03-01T08:53:22;33.92;;;20.88;;
21661;SDS011;10992;48.170;8.596;2023-03-01T08:55:49;31.58;;;21.13;;
21661;SDS011;10992;48.170;8.596;2023-03-01T08:58:16;30.40;;;20.35;;
21661;SDS011;10992;48.170;8.596;2023-03-01T09:00:43;32.72;;;21.63;;
21661;SDS011;10992;48.170;8.596;2023-03-01T09:03:25;33.42;;;19.40;;
21661;SDS011;10992;48.170;8.596;2023-03-01T09:05:54;32.75;;;21.00;;
21661;SDS011;10992;48.170;8.596;2023-03-01T09:08:26;30.73;;;20.88;;
21661;SDS011;10992;48.170;8.596;2023-03-01T09:10:53;34.10;;;20.38;;
21661;SDS011;10992;48.170;8.596;2023-03-01T09:13:21;28.70;;;20.63;;
21661;SDS011;10992;48.170;8.596;2023-03-01T09:15:51;29.73;;;20.55;;
21661;SDS011;10992;48.170;8.596;2023-03-01T09:18:18;34.92;;;21.98;;
21661;SDS011;10992;48.170;8.596;2023-03-01T09:20:44;30.73;;;20.65;;
21661;SDS011;10992;48.170;8.596;2023-03-01T09:23:11;31.17;;;20.38;;
21661;SDS011;10992;48.170;8.596;2023-03-01T09:25:38;34.15;;;20.75;;
21661;SDS011;10992;48.170;8.596;2023-03-01T09:28:05;34.35;;;20.98;;
21661;SDS011;10992;48.170;8.596;2023-03-01T09:30:32;33.30;;;21.05;;
21661;SDS011;10992;48.170;8.596;2023-03-01T09:32:59;34.63;;;20.92;;
21661;SDS011;10992;48.170;8.596;2023-03-01T09:35:26;31.60;;;20.13;;
21661;SDS011;10992;48.170;8.596;2023-03-01T09:37:54;33.42;;;21.00;;
21661;SDS011;10992;48.170;8.596;2023-03-01T09:40:21;30.42;;;19.75;;
21661;SDS011;10992;48.170;8.596;2023-03-01T09:42:53;34.15;;;20.92;;
21661;SDS011;10992;48.170;8.596;2023-03-01T09:45:35;31.67;;;20.98;;
21661;SDS011;10992;48.170;8.596;2023-03-01T09:48:08;35.95;;;22.20;;
21661;SDS011;10992;48.170;8.596;2023-03-01T09:50:41;33.63;;;20.02;;
21661;SDS011;10992;48.170;8.596;2023-03-01T09:53:12;29.98;;;20.00;;
21661;SDS011;10992;48.170;8.596;2023-03-01T09:55:48;28.80;;;19.35;;
21661;SDS011;10992;48.170;8.596;2023-03-01T09:58:33;30.10;;;19.95;;
21661;SDS011;10992;48.170;8.596;2023-03-01T10:01:14;31.48;;;19.75;;
21661;SDS011;10992;48.170;8.596;2023-03-01T10:04:08;32.13;;;20.38;;
21661;SDS011;10992;48.170;8.596;2023-03-01T10:07:02;31.45;;;20.80;;
21661;SDS011;10992;48.170;8.596;2023-03-01T10:09:50;27.27;;;18.90;;
21661;SDS011;10992;48.170;8.596;2023-03-01T10:12:19;31.65;;;19.20;;
21661;SDS011;10992;48.170;8.596;2023-03-01T10:17:50;28.58;;;17.85;;
21661;SDS011;10992;48.170;8.596;2023-03-01T10:20:23;27.85;;;19.58;;
21661;SDS011;10992;48.170;8.596;2023-03-01T10:22:59;28.50;;;18.88;;
21661;SDS011;10992;48.170;8.596;2023-03-01T10:30:44;25.95;;;18.95;;
21661;SDS011;10992;48.170;8.596;2023-03-01T10:33:20;26.73;;;17.52;;
21661;SDS011;10992;48.170;8.596;2023-03-01T10:35:49;27.70;;;18.63;;
21661;SDS011;10992;48.170;8.596;2023-03-01T10:38:18;31.08;;;18.90;;
21661;SDS011;10992;48.170;8.596;2023-03-01T10:41:05;28.48;;;18.52;;
21661;SDS011;10992;48.170;8.596;2023-03-01T10:43:52;28.35;;;18.30;;
21661;SDS011;10992;48.170;8.596;2023-03-01T10:51:50;32.35;;;18.73;;
21661;SDS011;10992;48.170;8.596;2023-03-01T10:54:19;28.50;;;18.63;;
21661;SDS011;10992;48.170;8.596;2023-03-01T10:56:50;30.27;;;18.55;;
21661;SDS011;10992;48.170;8.596;2023-03-01T10:59:25;27.95;;;18.73;;
21661;SDS011;10992;48.170;8.596;2023-03-01T11:05:00;28.30;;;17.75;;
21661;SDS011;10992;48.170;8.596;2023-03-01T11:07:29;26.85;;;17.85;;
21661;SDS011;10992;48.170;8.596;2023-03-01T11:09:56;25.40;;;17.50;;
21661;SDS011;10992;48.170;8.596;2023-03-01T11:12:23;25.30;;;17.15;;
21661;SDS011;10992;48.170;8.596;2023-03-01T11:14:51;26.05;;;18.63;;
21661;SDS011;10992;48.170;8.596;2023-03-01T11:17:23;26.20;;;17.60;;
21661;SDS011;10992;48.170;8.596;2023-03-01T11:22:51;27.73;;;18.80;;
21661;SDS011;10992;48.170;8.596;2023-03-01T11:25:29;24.35;;;17.33;;
21661;SDS011;10992;48.170;8.596;2023-03-01T11:28:03;26.15;;;18.15;;
21661;SDS011;10992;48.170;8.596;2023-03-01T11:36:11;24.15;;;17.15;;
21661;SDS011;10992;48.170;8.596;2023-03-01T11:38:40;24.60;;;16.10;;
21661;SDS011;10992;48.170;8.596;2023-03-01T11:57:00;21.98;;;16.30;;
21661;SDS011;10992;48.170;8.596;2023-03-01T12:02:37;21.60;;;15.68;;
21661;SDS011;10992;48.170;8.596;2023-03-01T12:14:09;21.20;;;15.10;;
21661;SDS011;10992;48.170;8.596;2023-03-01T12:16:50;19.88;;;15.10;;
21661;SDS011;10992;48.170;8.596;2023-03-01T12:25:34;20.25;;;14.65;;
21661;SDS011;10992;48.170;8.596;2023-03-01T12:36:10;24.08;;;15.55;;
21661;SDS011;10992;48.170;8.596;2023-03-01T12:39:03;23.48;;;15.07;;
21661;SDS011;10992;48.170;8.596;2023-03-01T12:50:21;16.65;;;13.68;;
21661;SDS011;10992;48.170;8.596;2023-03-01T12:52:51;19.83;;;13.52;;
21661;SDS011;10992;48.170;8.596;2023-03-01T12:55:24;19.60;;;14.00;;
21661;SDS011;10992;48.170;8.596;2023-03-01T12:57:57;16.88;;;12.98;;
21661;SDS011;10992;48.170;8.596;2023-03-01T13:06:25;17.67;;;13.48;;
21661;SDS011;10992;48.170;8.596;2023-03-01T13:12:41;21.80;;;13.57;;
21661;SDS011;10992;48.170;8.596;2023-03-01T13:15:32;19.17;;;14.23;;
21661;SDS011;10992;48.170;8.596;2023-03-01T13:18:03;19.98;;;14.25;;
21661;SDS011;10992;48.170;8.596;2023-03-01T13:20:46;23.40;;;15.10;;
21661;SDS011;10992;48.170;8.596;2023-03-01T13:31:56;22.55;;;14.98;;
21661;SDS011;10992;48.170;8.596;2023-03-01T13:33:58;20.88;;;13.95;;
21661;SDS011;10992;48.170;8.596;2023-03-01T13:39:01;19.83;;;14.85;;
21661;SDS011;10992;48.170;8.596;2023-03-01T13:41:49;21.80;;;15.90;;
21661;SDS011;10992;48.170;8.596;2023-03-01T13:46:51;17.77;;;14.10;;
21661;SDS011;10992;48.170;8.596;2023-03-01T13:49:20;19.23;;;14.43;;
21661;SDS011;10992;48.170;8.596;2023-03-01T13:52:25;21.13;;;15.38;;
21661;SDS011;10992;48.170;8.596;2023-03-01T13:55:27;21.52;;;15.30;;
21661;SDS011;10992;48.170;8.596;2023-03-01T13:58:02;19.25;;;14.95;;
21661;SDS011;10992;48.170;8.596;2023-03-01T14:00:39;19.55;;;14.55;;
21661;SDS011;10992;48.170;8.596;2023-03-01T14:05:40;19.83;;;14.93;;
21661;SDS011;10992;48.170;8.596;2023-03-01T14:08:23;22.67;;;15.13;;
21661;SDS011;10992;48.170;8.596;2023-03-01T14:19:26;20.33;;;14.32;;
21661;SDS011;10992;48.170;8.596;2023-03-01T14:24:59;19.45;;;14.60;;
21661;SDS011;10992;48.170;8.596;2023-03-01T14:27:35;20.50;;;15.02;;
21661;SDS011;10992;48.170;8.596;2023-03-01T14:30:20;20.45;;;14.50;;
21661;SDS011;10992;48.170;8.596;2023-03-01T14:35:27;21.88;;;16.08;;
21661;SDS011;10992;48.170;8.596;2023-03-01T14:37:56;19.90;;;15.05;;
21661;SDS011;10992;48.170;8.596;2023-03-01T14:42:56;18.83;;;15.05;;
21661;SDS011;10992;48.170;8.596;2023-03-01T14:45:26;22.50;;;15.73;;
21661;SDS011;10992;48.170;8.596;2023-03-01T14:47:58;18.27;;;14.35;;
21661;SDS011;10992;48.170;8.596;2023-03-01T14:50:29;21.08;;;14.85;;
21661;SDS011;10992;48.170;8.596;2023-03-01T14:52:58;19.90;;;14.90;;
21661;SDS011;10992;48.170;8.596;2023-03-01T14:55:32;20.50;;;14.93;;
21661;SDS011;10992;48.170;8.596;2023-03-01T14:58:03;18.48;;;15.35;;
21661;SDS011;10992;48.170;8.596;2023-03-01T15:00:32;19.77;;;15.07;;
21661;SDS011;10992;48.170;8.596;2023-03-01T15:03:01;18.38;;;14.63;;
21661;SDS011;10992;48.170;8.596;2023-03-01T15:05:36;24.77;;;15.90;;
21661;SDS011;10992;48.170;8.596;2023-03-01T15:08:03;23.98;;;16.60;;
21661;SDS011;10992;48.170;8.596;2023-03-01T15:10:32;24.58;;;18.25;;
21661;SDS011;10992;48.170;8.596;2023-03-01T15:13:19;19.40;;;14.27;;
21661;SDS011;10992;48.170;8.596;2023-03-01T15:15:49;19.83;;;14.50;;
21661;SDS011;10992;48.170;8.596;2023-03-01T15:18:21;19.35;;;14.90;;
21661;SDS011;10992;48.170;8.596;2023-03-01T15:20:54;20.38;;;15.20;;
21661;SDS011;10992;48.170;8.596;2023-03-01T15:23:23;19.02;;;14.90;;
21661;SDS011;10992;48.170;8.596;2023-03-01T15:25:52;21.23;;;14.98;;
21661;SDS011;10992;48.170;8.596;2023-03-01T15:28:28;21.48;;;15.35;;
21661;SDS011;10992;48.170;8.596;2023-03-01T15:30:58;19.65;;;15.30;;
21661;SDS011;10992;48.170;8.596;2023-03-01T15:33:38;19.65;;;15.13;;
21661;SDS011;10992;48.170;8.596;2023-03-01T15:36:30;19.10;;;14.45;;
21661;SDS011;10992;48.170;8.596;2023-03-01T15:39:27;22.40;;;15.27;;
21661;SDS011;10992;48.170;8.596;2023-03-01T15:41:58;20.85;;;15.48;;
21661;SDS011;10992;48.170;8.596;2023-03-01T15:44:32;20.02;;;14.70;;
21661;SDS011;10992;48.170;8.596;2023-03-01T15:47:26;21.08;;;14.90;;
21661;SDS011;10992;48.170;8.596;2023-03-01T15:49:57;20.98;;;14.35;;
21661;SDS011;10992;48.170;8.596;2023-03-01T15:52:35;20.30;;;15.32;;
21661;SDS011;10992;48.170;8.596;2023-03-01T15:57:48;21.48;;;14.40;;
21661;SDS011;10992;48.170;8.596;2023-03-01T16:00:16;21.52;;;15.15;;
21661;SDS011;10992;48.170;8.596;2023-03-01T16:02:45;23.67;;;14.43;;
21661;SDS011;10992;48.170;8.596;2023-03-01T16:05:17;20.10;;;14.65;;
21661;SDS011;10992;48.170;8.596;2023-03-01T16:07:46;23.65;;;15.27;;
21661;SDS011;10992;48.170;8.596;2023-03-01T16:10:13;22.48;;;15.27;;
21661;SDS011;10992;48.170;8.596;2023-03-01T16:12:41;20.20;;;15.15;;
21661;SDS011;10992;48.170;8.596;2023-03-01T16:15:13;22.23;;;15.63;;
21661;SDS011;10992;48.170;8.596;2023-03-01T16:17:44;20.83;;;16.25;;
21661;SDS011;10992;48.170;8.596;2023-03-01T16:20:19;25.63;;;15.93;;
21661;SDS011;10992;48.170;8.596;2023-03-01T16:22:54;26.75;;;16.35;;
21661;SDS011;10992;48.170;8.596;2023-03-01T16:25:24;22.33;;;16.15;;
21661;SDS011;10992;48.170;8.596;2023-03-01T16:27:51;23.38;;;15.68;;
21661;SDS011;10992;48.170;8.596;2023-03-01T16:30:19;22.52;;;16.30;;
21661;SDS011;10992;48.170;8.596;2023-03-01T16:32:48;25.13;;;18.00;;
21661;SDS011;10992;48.170;8.596;2023-03-01T16:35:17;25.42;;;17.55;;
21661;SDS011;10992;48.170;8.596;2023-03-01T16:37:47;25.40;;;16.63;;
21661;SDS011;10992;48.170;8.596;2023-03-01T16:40:25;23.67;;;16.60;;
21661;SDS011;10992;48.170;8.596;2023-03-01T16:42:54;23.48;;;16.17;;
21661;SDS011;10992;48.170;8.596;2023-03-01T16:45:26;22.23;;;15.77;;
21661;SDS011;10992;48.170;8.596;2023-03-01T16:48:03;22.35;;;16.15;;
21661;SDS011;10992;48.170;8.596;2023-03-01T16:50:30;28.88;;;19.02;;
21661;SDS011;10992;48.170;8.596;2023-03-01T16:52:56;32.65;;;19.33;;
21661;SDS011;10992;48.170;8.596;2023-03-01T16:55:23;32.00;;;19.45;;